Terminal Aerodrome Forecast
Issued by NWS

Home | Current Version | Previous Version | Graphics & Text | Print | Product List | Glossary On
Versions: 1 2 3 4 5 6 7 8 9 10 11 12 13 14 15
000
FTUS43 KGRB 282330
TAFRHI
TAF
KRHI 282330Z 2900/2924 25008G15KT P6SM SCT040 BKN070
      TEMPO 2900/2902 5SM SHRA BKN035
     FM290200 18004KT P6SM SCT040 BKN060
      TEMPO 2902/2905 2SM TSRA BKN020CB OVC035
     FM290500 18005KT P6SM VCSH BKN035
     FM290700 19005KT P6SM VCSH OVC030
     FM291100 22005KT 3SM -SHRA OVC004
     FM291500 26009KT P6SM VCSH BKN015
     FM292300 28008KT P6SM VCSH BKN035=

USA.gov is the U.S. government's official web portal to all federal, state and local government web resources and services.